Time;durP1;ratioP1;P1;durP2;ratioP2;P2;SDS_P1;SDS_P2;PMS_P1;PMS_P2;Temp;Humidity;BMP_temperature;BMP_pressure;BME280_temperature;BME280_humidity;BME280_pressure;Samples;Min_cycle;Max_cycle;Signal;HPM_P1;HPM_P2
2023/04/06 00:03:13;;;;;;;23.13;10.75;;;;;;;0.44;100.00;101872.19;10369607;28;20041;-69
2023/04/06 00:08:13;;;;;;;16.20;9.95;;;;;;;0.48;100.00;101877.09;10414780;28;20124;-69
2023/04/06 00:13:14;;;;;;;16.30;9.80;;;;;;;0.39;100.00;101861.81;10378580;28;20040;-69
2023/04/06 00:18:15;;;;;;;19.73;11.13;;;;;;;0.44;100.00;101856.75;10342186;28;20105;-69
2023/04/06 00:23:15;;;;;;;16.75;10.23;;;;;;;0.37;100.00;101858.41;10341876;28;20041;-69
2023/04/06 00:28:16;;;;;;;17.08;10.60;;;;;;;0.28;100.00;101854.00;10343709;28;20034;-70
2023/04/06 00:33:16;;;;;;;17.27;9.77;;;;;;;0.12;100.00;101842.06;10359667;28;20029;-70
2023/04/06 00:38:17;;;;;;;19.75;10.73;;;;;;;-0.03;100.00;101819.31;10341541;28;20038;-70
2023/04/06 00:43:18;;;;;;;16.63;10.50;;;;;;;-0.07;100.00;101828.75;10372514;28;20046;-69
2023/04/06 00:48:18;;;;;;;19.30;11.00;;;;;;;-0.07;100.00;101839.59;10349019;28;20038;-69
2023/04/06 00:53:19;;;;;;;18.63;12.48;;;;;;;-0.18;100.00;101829.91;10381025;28;20121;-69
2023/04/06 00:58:20;;;;;;;20.25;12.00;;;;;;;-0.22;100.00;101817.69;10366675;28;20060;-70
2023/04/06 01:03:20;;;;;;;21.65;12.98;;;;;;;-0.20;100.00;101826.50;10365626;28;20048;-69
2023/04/06 01:08:21;;;;;;;20.27;13.40;;;;;;;-0.22;100.00;101823.09;10380331;28;20481;-69
2023/04/06 01:13:21;;;;;;;22.73;14.10;;;;;;;-0.25;100.00;101813.47;10340122;28;20072;-70
2023/04/06 01:18:29;;;;;;;19.98;12.27;;;;;;;-0.21;100.00;101804.00;10356547;28;20045;-70
2023/04/06 01:23:30;;;;;;;19.80;12.80;;;;;;;-0.39;100.00;101773.47;10324936;28;20064;-69
2023/04/06 01:28:30;;;;;;;25.85;13.93;;;;;;;-0.46;100.00;101762.41;10342106;28;20062;-69
2023/04/06 01:33:31;;;;;;;20.95;13.55;;;;;;;-0.36;100.00;101794.78;10340349;28;20034;-70
2023/04/06 01:38:31;;;;;;;22.05;14.45;;;;;;;-0.47;100.00;101781.53;10373784;28;20041;-69
2023/04/06 01:43:32;;;;;;;23.30;15.55;;;;;;;-0.42;100.00;101790.00;10339960;28;20120;-69
2023/04/06 01:48:32;;;;;;;24.88;15.55;;;;;;;-0.55;100.00;101765.25;10338773;28;20042;-67
2023/04/06 01:53:33;;;;;;;25.40;14.80;;;;;;;-0.52;100.00;101773.03;10324118;28;20065;-69
2023/04/06 01:58:33;;;;;;;23.83;15.27;;;;;;;-0.54;100.00;101766.94;10356235;28;20029;-69
2023/04/06 02:03:34;;;;;;;32.10;16.92;;;;;;;-0.53;100.00;101768.63;10338264;28;20072;-69
2023/04/06 02:08:34;;;;;;;24.80;13.93;;;;;;;-0.56;100.00;101777.06;10354518;28;20041;-70
2023/04/06 02:13:35;;;;;;;24.63;14.60;;;;;;;-0.64;100.00;101769.72;10354917;28;20045;-69
2023/04/06 02:18:35;;;;;;;24.42;14.20;;;;;;;-0.71;100.00;101753.28;10338180;28;20030;-71
2023/04/06 02:23:36;;;;;;;24.10;14.20;;;;;;;-0.65;100.00;101754.53;10370952;28;20104;-69
2023/04/06 02:28:36;;;;;;;24.40;14.93;;;;;;;-0.64;100.00;101751.66;10355547;28;20046;-69
2023/04/06 02:33:37;;;;;;;25.40;14.52;;;;;;;-0.80;100.00;101727.22;10371394;28;20152;-70
2023/04/06 02:38:37;;;;;;;24.38;14.13;;;;;;;-0.66;100.00;101748.28;10353423;28;20223;-70
2023/04/06 02:43:38;;;;;;;22.33;13.40;;;;;;;-0.79;100.00;101734.31;10372179;28;20037;-69
2023/04/06 02:48:39;;;;;;;24.58;14.88;;;;;;;-0.76;100.00;101739.41;10353046;28;20104;-70
2023/04/06 02:53:40;;;;;;;23.88;13.30;;;;;;;-0.68;100.00;101746.75;10354324;28;20060;-69
2023/04/06 02:58:40;;;;;;;22.45;13.38;;;;;;;-0.73;100.00;101728.25;10372645;28;20117;-70
2023/04/06 03:03:41;;;;;;;18.73;12.55;;;;;;;-0.75;100.00;101729.44;10370836;28;20038;-70
2023/04/06 03:08:41;;;;;;;22.52;13.23;;;;;;;-0.92;100.00;101713.09;10369055;28;20070;-70
2023/04/06 03:13:42;;;;;;;19.98;11.68;;;;;;;-0.94;100.00;101731.34;10352407;28;20402;-64
2023/04/06 03:18:44;;;;;;;21.30;12.50;;;;;;;-0.99;100.00;101727.41;10337749;28;20057;-69
2023/04/06 03:23:45;;;;;;;19.73;11.95;;;;;;;-1.13;100.00;101726.97;10352969;28;20029;-68
2023/04/06 03:28:45;;;;;;;20.08;12.07;;;;;;;-1.29;100.00;101706.06;10353509;28;20037;-70
2023/04/06 03:33:46;;;;;;;24.08;13.85;;;;;;;-1.25;100.00;101728.22;10336069;28;20076;-69
2023/04/06 03:38:47;;;;;;;21.33;13.18;;;;;;;-1.35;100.00;101705.84;10351576;28;20085;-69
2023/04/06 03:43:47;;;;;;;19.95;12.35;;;;;;;-1.44;100.00;101716.56;10382778;28;20068;-70
2023/04/06 03:48:48;;;;;;;21.52;12.38;;;;;;;-1.47;100.00;101713.31;10390094;28;20053;-69
2023/04/06 03:53:49;;;;;;;29.65;13.93;;;;;;;-1.67;100.00;101680.25;10359926;28;20530;-69
2023/04/06 03:58:51;;;;;;;22.92;13.60;;;;;;;-1.60;100.00;101702.91;10392880;28;20041;-68
2023/04/06 04:03:52;;;;;;;19.83;13.05;;;;;;;-1.68;100.00;101683.94;10375492;28;20152;-69
2023/04/06 04:08:52;;;;;;;22.50;13.93;;;;;;;-1.48;100.00;101711.66;10391017;28;20061;-69
2023/04/06 04:13:53;;;;;;;22.77;13.95;;;;;;;-1.44;100.00;101707.63;10390794;28;20037;-70
2023/04/06 04:18:53;;;;;;;20.45;12.65;;;;;;;-1.35;100.00;101713.94;10363155;28;20045;-69
2023/04/06 04:23:54;;;;;;;21.23;13.65;;;;;;;-1.29;100.00;101710.63;10352674;28;20034;-70
2023/04/06 04:28:55;;;;;;;22.33;13.57;;;;;;;-1.25;100.00;101707.44;10327211;28;20117;-69
2023/04/06 04:33:55;;;;;;;19.85;13.13;;;;;;;-1.32;100.00;101710.94;10357551;28;20034;-70
2023/04/06 04:38:56;;;;;;;19.63;11.88;;;;;;;-1.34;100.00;101705.69;10358029;28;21752;-69
2023/04/06 04:43:56;;;;;;;20.42;12.43;;;;;;;-1.32;100.00;101711.78;10341057;28;20092;-69
2023/04/06 04:48:57;;;;;;;21.38;13.48;;;;;;;-1.30;100.00;101703.50;10357435;28;20045;-69
2023/04/06 04:53:57;;;;;;;20.17;12.85;;;;;;;-1.31;100.00;101696.41;10338568;28;20041;-70
2023/04/06 04:58:58;;;;;;;21.48;12.60;;;;;;;-1.32;100.00;101697.44;10356862;28;20077;-70
2023/04/06 05:03:58;;;;;;;19.80;12.85;;;;;;;-1.29;100.00;101699.81;10373903;28;20049;-70
2023/04/06 05:08:59;;;;;;;19.75;12.18;;;;;;;-1.29;100.00;101707.91;10324357;28;20196;-69
2023/04/06 05:14:00;;;;;;;19.67;11.52;;;;;;;-1.42;100.00;101695.66;10373114;28;20042;-70
2023/04/06 05:19:00;;;;;;;18.73;11.90;;;;;;;-1.49;100.00;101678.38;10354056;28;20507;-69
2023/04/06 05:24:02;;;;;;;22.02;12.57;;;;;;;-1.28;100.00;101706.91;10413641;28;20057;-70
2023/04/06 05:29:02;;;;;;;19.70;12.63;;;;;;;-1.36;100.00;101691.50;10397092;28;20029;-70
2023/04/06 05:34:03;;;;;;;19.77;11.75;;;;;;;-1.30;100.00;101698.97;10395121;28;20030;-70
2023/04/06 05:39:04;;;;;;;18.70;12.40;;;;;;;-1.28;100.00;101707.78;10428918;28;20030;-70
2023/04/06 05:44:04;;;;;;;21.25;12.88;;;;;;;-1.21;100.00;101702.59;10412211;28;20372;-70
2023/04/06 05:49:05;;;;;;;19.42;11.70;;;;;;;-1.27;100.00;101677.03;10356747;28;20069;-65
2023/04/06 05:54:05;;;;;;;20.45;11.85;;;;;;;-0.92;100.00;101701.44;10339973;28;20442;-70
2023/04/06 05:59:06;;;;;;;17.92;10.75;;;;;;;-0.83;100.00;101668.91;10355665;28;20038;-70
2023/04/06 06:04:06;;;;;;;16.15;11.15;;;;;;;-0.70;100.00;101673.88;10354785;28;20042;-70
2023/04/06 06:09:07;;;;;;;17.48;10.80;;;;;;;-0.47;100.00;101681.44;10355055;28;20042;-71
2023/04/06 06:14:07;;;;;;;18.42;10.98;;;;;;;-0.37;100.00;101657.81;10322119;28;20121;-71
2023/04/06 06:19:08;;;;;;;13.40;8.68;;;;;;;-0.04;100.00;101657.91;10338799;28;20057;-70
2023/04/06 06:24:09;;;;;;;10.90;8.13;;;;;;;0.25;100.00;101633.09;10370767;28;20037;-66
2023/04/06 06:29:10;;;;;;;16.15;8.77;;;;;;;0.70;100.00;101628.16;10338505;28;20048;-71
2023/04/06 06:34:12;;;;;;;13.30;8.27;;;;;;;1.08;100.00;101636.59;10354519;28;20040;-71
2023/04/06 06:39:13;;;;;;;13.55;8.52;;;;;;;1.57;100.00;101658.13;10371357;28;20084;-70
2023/04/06 06:44:13;;;;;;;13.77;8.48;;;;;;;1.79;100.00;101649.19;10369772;28;20061;-71
2023/04/06 06:49:14;;;;;;;11.90;8.55;;;;;;;1.90;100.00;101638.97;10371752;28;20177;-70
2023/04/06 06:54:15;;;;;;;12.65;8.27;;;;;;;2.10;100.00;101637.47;10338740;28;20065;-70
2023/04/06 06:59:16;;;;;;;13.65;8.23;;;;;;;2.36;100.00;101641.75;10344581;28;20041;-71
2023/04/06 07:04:16;;;;;;;14.20;7.63;;;;;;;2.53;100.00;101643.28;10354965;28;20129;-69
2023/04/06 07:09:17;;;;;;;9.63;7.53;;;;;;;2.82;100.00;101637.06;10389915;28;20061;-72
2023/04/06 07:14:17;;;;;;;10.65;7.55;;;;;;;3.01;100.00;101635.69;10357942;28;20038;-71
2023/04/06 07:19:18;;;;;;;9.90;7.35;;;;;;;3.27;100.00;101639.03;10390883;28;20033;-70
2023/04/06 07:24:18;;;;;;;15.25;7.03;;;;;;;3.46;100.00;101618.56;10375266;28;20038;-71
2023/04/06 07:29:19;;;;;;;10.93;7.57;;;;;;;3.87;100.00;101631.66;10363099;28;20033;-71
2023/04/06 07:34:19;;;;;;;12.25;7.07;;;;;;;3.85;100.00;101593.69;10405403;28;20556;-71
2023/04/06 07:39:20;;;;;;;13.07;6.78;;;;;;;4.19;100.00;101603.88;10389273;28;20029;-71
2023/04/06 07:44:20;;;;;;;11.90;7.30;;;;;;;4.33;100.00;101585.78;10371444;28;20076;-72
2023/04/06 07:49:22;;;;;;;15.63;7.07;;;;;;;4.53;100.00;101580.53;10379221;28;20042;-71
2023/04/06 07:54:23;;;;;;;14.68;7.20;;;;;;;4.85;100.00;101600.06;10355689;28;20033;-69
2023/04/06 07:59:23;;;;;;;12.27;7.35;;;;;;;5.10;100.00;101597.72;10391555;28;20048;-70
2023/04/06 08:04:24;;;;;;;10.85;7.63;;;;;;;4.46;100.00;101486.91;10432310;28;20073;-71
2023/04/06 08:09:25;;;;;;;12.27;7.53;;;;;;;5.32;100.00;101578.53;10368011;28;20119;-70
2023/04/06 08:14:25;;;;;;;11.07;7.35;;;;;;;5.57;100.00;101587.88;10433337;28;20045;-67
2023/04/06 08:19:26;;;;;;;8.63;6.68;;;;;;;5.74;100.00;101577.44;10377032;28;20053;-69
2023/04/06 08:24:26;;;;;;;10.57;6.97;;;;;;;5.97;100.00;101581.72;10376349;28;20045;-70
2023/04/06 08:29:27;;;;;;;15.88;8.05;;;;;;;6.35;100.00;101594.88;10342153;28;20057;-70
2023/04/06 08:34:27;;;;;;;13.63;7.30;;;;;;;6.62;100.00;101573.81;10358878;28;20030;-70
2023/04/06 08:39:30;;;;;;;11.13;7.25;;;;;;;6.94;100.00;101566.63;10381649;28;20162;-69
2023/04/06 08:44:31;;;;;;;10.00;6.25;;;;;;;7.33;100.00;101555.78;10358555;28;20038;-70
2023/04/06 08:49:32;;;;;;;9.35;6.50;;;;;;;7.70;100.00;101548.66;10344089;28;20038;-70
2023/04/06 08:54:33;;;;;;;8.15;6.22;;;;;;;7.99;100.00;101536.25;10357739;28;20034;-70
2023/04/06 08:59:33;;;;;;;9.45;6.28;;;;;;;8.16;100.00;101531.06;10358013;28;20042;-71
2023/04/06 09:04:34;;;;;;;31.95;8.02;;;;;;;8.46;100.00;101533.22;10341931;28;20048;-70
2023/04/06 09:09:35;;;;;;;30.90;6.93;;;;;;;8.75;99.77;101520.69;10324244;28;20042;-70
2023/04/06 09:14:37;;;;;;;15.07;6.30;;;;;;;8.92;93.58;101512.72;10340230;28;20037;-69
2023/04/06 09:19:46;;;;;;;13.63;6.43;;;;;;;9.20;93.73;101509.44;10341432;28;20103;-69
2023/04/06 09:24:48;;;;;;;36.03;7.18;;;;;;;9.59;90.89;101511.88;10357022;28;20057;-69
2023/04/06 09:29:48;;;;;;;11.13;6.40;;;;;;;9.81;89.96;101503.97;10356107;28;20061;-70
2023/04/06 09:34:49;;;;;;;28.48;7.03;;;;;;;10.16;86.34;101501.31;10372622;28;20149;-70
2023/04/06 09:39:52;;;;;;;11.13;7.63;;;;;;;10.32;81.39;101482.50;10339586;28;20313;-69
2023/04/06 09:44:52;;;;;;;7.80;6.00;;;;;;;10.37;78.74;101468.84;10355484;28;20096;-69
2023/04/06 09:49:57;;;;;;;10.23;6.32;;;;;;;10.67;78.85;101472.31;10340956;28;20453;-69
2023/04/06 09:55:01;;;;;;;11.65;7.20;;;;;;;10.82;75.42;101451.69;10322868;28;20033;-70
2023/04/06 10:00:11;;;;;;;14.98;7.45;;;;;;;11.17;76.33;101450.78;10339437;28;20505;-69
2023/04/06 10:05:27;;;;;;;12.05;6.72;;;;;;;11.40;71.89;101464.47;10355696;28;20097;-69
2023/04/06 10:10:28;;;;;;;13.90;7.05;;;;;;;11.45;73.20;101448.06;10372043;28;20172;-69
2023/04/06 10:15:29;;;;;;;10.38;7.68;;;;;;;11.48;72.63;101464.09;10372928;28;20030;-70
2023/04/06 10:21:02;;;;;;;12.63;8.88;;;;;;;11.80;71.36;101460.84;10347255;28;20075;-70
2023/04/06 10:26:03;;;;;;;16.33;9.48;;;;;;;12.21;69.67;101445.00;10374904;28;20120;-69
2023/04/06 10:31:06;;;;;;;16.23;10.07;;;;;;;12.50;68.53;101442.94;10392150;28;20079;-69
2023/04/06 10:36:34;;;;;;;16.92;10.00;;;;;;;13.10;69.82;101446.84;10394024;28;20033;-70
2023/04/06 10:41:34;;;;;;;;;;;;;;;13.20;68.72;101450.81;10395110;28;20045;-70
2023/04/06 10:46:34;;;;;;;17.33;10.95;;;;;;;13.16;65.70;101435.84;10399259;28;20133;-70
2023/04/06 10:51:37;;;;;;;15.55;10.45;;;;;;;12.80;64.25;101413.28;10348571;28;20050;-70
2023/04/06 10:56:39;;;;;;;19.48;10.73;;;;;;;12.81;64.73;101390.06;10319985;28;20412;-70
2023/04/06 11:01:39;;;;;;;18.08;10.63;;;;;;;13.24;65.97;101418.78;10352948;28;20381;-70
2023/04/06 11:06:40;;;;;;;14.68;11.10;;;;;;;13.28;67.58;101431.00;10321209;28;20061;-69
2023/04/06 11:11:40;;;;;;;16.77;11.65;;;;;;;13.61;65.64;101421.72;10373591;28;20057;-70
2023/04/06 11:16:41;;;;;;;19.92;12.10;;;;;;;13.29;61.87;101364.41;10373652;28;20153;-70
2023/04/06 11:21:48;;;;;;;16.70;11.48;;;;;;;13.81;65.33;101423.84;10336004;28;20057;-69
2023/04/06 11:26:58;;;;;;;;;;;;;;;13.62;61.93;101404.03;10358086;28;20128;-69
2023/04/06 11:32:05;;;;;;;22.13;12.98;;;;;;;13.53;61.16;101397.28;10336302;28;19917;-69
2023/04/06 11:37:10;;;;;;;19.05;13.45;;;;;;;13.88;61.34;101395.94;10352710;28;20041;-69
2023/04/06 11:42:10;;;;;;;23.13;13.93;;;;;;;14.16;61.75;101418.84;10352484;28;20085;-69
2023/04/06 11:47:11;;;;;;;24.75;13.43;;;;;;;14.19;62.22;101408.09;10351403;28;20045;-69
2023/04/06 11:52:19;;;;;;;21.45;14.73;;;;;;;14.51;60.49;101387.78;10335149;28;20125;-69
2023/04/06 11:57:22;;;;;;;22.52;14.60;;;;;;;14.53;60.12;101396.66;10352142;28;20440;-69
2023/04/06 12:02:23;;;;;;;22.73;14.55;;;;;;;14.37;59.89;101370.84;10352613;28;20038;-69
2023/04/06 12:07:23;;;;;;;21.80;14.02;;;;;;;14.69;61.74;101392.09;10335225;28;20058;-69
2023/04/06 12:12:24;;;;;;;20.33;13.85;;;;;;;14.43;60.69;101388.31;10356578;28;20034;-70
2023/04/06 12:17:25;;;;;;;19.42;14.75;;;;;;;14.23;57.88;101356.63;10336792;28;20064;-69
2023/04/06 12:22:25;;;;;;;22.35;14.65;;;;;;;14.31;60.82;101369.13;10334468;28;20065;-70
2023/04/06 12:27:26;;;;;;;25.55;14.82;;;;;;;15.09;58.14;101360.09;10379320;28;20155;-70
2023/04/06 12:32:26;;;;;;;21.95;15.48;;;;;;;15.88;58.18;101366.34;10389297;28;20117;-67
2023/04/06 12:37:27;;;;;;;19.42;14.57;;;;;;;16.00;57.78;101369.66;10369879;28;20066;-69
2023/04/06 12:42:27;;;;;;;26.75;16.75;;;;;;;15.74;57.14;101354.94;10333912;28;20053;-70
2023/04/06 12:47:28;;;;;;;24.38;15.60;;;;;;;15.43;56.71;101357.66;10351117;28;20057;-69
2023/04/06 12:52:31;;;;;;;21.67;16.30;;;;;;;15.85;55.46;101345.50;10371623;28;20065;-70
2023/04/06 12:57:31;;;;;;;22.83;16.40;;;;;;;15.70;54.77;101337.16;10381045;28;20053;-69
2023/04/06 13:02:32;;;;;;;24.23;17.85;;;;;;;16.01;56.58;101351.88;10367232;28;20072;-69
2023/04/06 13:07:32;;;;;;;26.60;17.65;;;;;;;16.33;55.74;101337.66;10381616;28;20065;-69
2023/04/06 13:12:34;;;;;;;22.90;17.60;;;;;;;15.86;53.32;101311.09;10381632;28;20052;-70
2023/04/06 13:17:35;;;;;;;24.00;16.88;;;;;;;15.61;55.86;101334.09;10372533;28;20044;-69
2023/04/06 13:22:36;;;;;;;26.17;17.75;;;;;;;15.20;56.44;101327.69;10356109;28;20139;-69
2023/04/06 13:27:36;;;;;;;25.98;18.35;;;;;;;14.75;56.24;101332.81;10356942;28;20053;-67
2023/04/06 13:32:37;;;;;;;27.75;17.35;;;;;;;14.40;56.91;101330.69;10342214;28;20053;-69
2023/04/06 13:37:38;;;;;;;27.42;18.02;;;;;;;14.66;56.35;101335.28;10339841;28;20061;-69
2023/04/06 13:42:40;;;;;;;27.88;17.05;;;;;;;14.76;55.53;101333.63;10323503;28;20482;-69
2023/04/06 13:47:41;;;;;;;23.38;16.17;;;;;;;14.49;57.54;101331.81;10356503;28;20500;-69
2023/04/06 13:52:41;;;;;;;24.52;17.20;;;;;;;14.22;56.36;101315.34;10339208;28;20230;-70
2023/04/06 13:57:42;;;;;;;25.83;17.50;;;;;;;14.07;56.60;101327.97;10340407;28;20066;-69
2023/04/06 14:02:43;;;;;;;26.52;17.42;;;;;;;14.22;59.30;101338.34;10374632;28;20034;-70
2023/04/06 14:07:43;;;;;;;25.55;17.20;;;;;;;14.16;58.27;101324.72;10338849;28;20124;-70
2023/04/06 14:12:44;;;;;;;25.30;17.23;;;;;;;14.20;58.84;101326.69;10341477;28;20034;-70
2023/04/06 14:17:45;;;;;;;23.13;16.25;;;;;;;13.99;57.38;101308.28;10411823;28;20045;-71
2023/04/06 14:22:46;;;;;;;24.65;16.60;;;;;;;13.96;56.53;101312.41;10377924;28;20135;-70
2023/04/06 14:27:46;;;;;;;25.95;17.45;;;;;;;14.04;57.12;101308.31;10378653;28;20064;-70
2023/04/06 14:32:47;;;;;;;24.88;16.63;;;;;;;14.11;56.38;101306.13;10395959;28;20068;-70
2023/04/06 14:37:47;;;;;;;24.77;16.52;;;;;;;13.93;58.00;101297.19;10361812;28;20115;-70
2023/04/06 14:42:50;;;;;;;28.30;18.30;;;;;;;13.45;57.27;101282.41;10412408;28;20041;-70
2023/04/06 14:47:51;;;;;;;30.48;17.70;;;;;;;13.35;58.68;101307.22;10384660;28;20048;-69
2023/04/06 14:52:51;;;;;;;29.65;17.40;;;;;;;13.18;60.40;101314.75;10341790;28;20044;-70
2023/04/06 14:57:52;;;;;;;27.15;17.65;;;;;;;13.14;61.47;101314.44;10391058;28;20040;-70
2023/04/06 15:02:52;;;;;;;26.05;17.02;;;;;;;13.19;61.07;101317.28;10378674;28;20069;-71
2023/04/06 15:07:53;;;;;;;31.60;18.48;;;;;;;12.97;59.89;101295.19;10377058;28;20041;-67
2023/04/06 15:12:53;;;;;;;29.70;17.77;;;;;;;12.89;61.26;101315.84;10378248;28;20053;-69
2023/04/06 15:17:54;;;;;;;27.73;17.95;;;;;;;12.43;62.40;101297.88;10352382;28;20072;-70
2023/04/06 15:22:55;;;;;;;23.75;17.50;;;;;;;12.25;63.41;101313.66;10353039;28;20038;-70
2023/04/06 15:27:55;;;;;;;24.35;16.83;;;;;;;11.82;63.54;101259.19;10371893;28;20065;-70
2023/04/06 15:33:00;;;;;;;26.13;17.58;;;;;;;12.11;64.59;101323.38;10337319;28;20045;-70
2023/04/06 15:38:01;;;;;;;24.50;16.63;;;;;;;11.94;64.40;101319.81;10320097;28;20034;-70
2023/04/06 15:43:01;;;;;;;26.08;16.48;;;;;;;11.73;66.92;101319.47;10336306;28;20046;-70
2023/04/06 15:48:02;;;;;;;25.25;15.02;;;;;;;11.59;68.33;101337.44;10320073;28;20042;-70
2023/04/06 15:53:02;;;;;;;21.58;13.63;;;;;;;11.31;69.53;101337.25;10352904;28;20148;-71
2023/04/06 15:58:03;;;;;;;21.15;14.20;;;;;;;11.15;70.56;101346.31;10360919;28;20072;-70
2023/04/06 16:03:03;;;;;;;23.45;15.43;;;;;;;11.04;71.33;101353.56;10343786;28;20030;-70
2023/04/06 16:08:04;;;;;;;28.33;15.95;;;;;;;11.08;73.07;101359.41;10342456;28;20135;-66
2023/04/06 16:13:06;;;;;;;22.45;14.70;;;;;;;10.99;74.89;101367.22;10409803;28;20037;-69
2023/04/06 16:18:06;;;;;;;23.00;13.95;;;;;;;10.66;77.11;101368.75;10373968;28;20059;-70
2023/04/06 16:23:06;;;;;;;23.48;13.93;;;;;;;10.61;77.54;101376.91;10397689;28;20044;-70
2023/04/06 16:28:07;;;;;;;22.15;13.48;;;;;;;10.63;78.96;101376.66;10400204;28;20038;-69
2023/04/06 16:33:08;;;;;;;21.10;12.55;;;;;;;10.50;78.21;101364.00;10383023;28;20377;-70
2023/04/06 16:38:08;;;;;;;22.73;13.27;;;;;;;10.22;78.04;101350.94;10371914;28;20040;-70
2023/04/06 16:43:09;;;;;;;21.40;12.48;;;;;;;10.28;79.22;101361.00;10398227;28;20148;-70
2023/04/06 16:48:09;;;;;;;19.08;12.05;;;;;;;10.33;80.37;101380.41;10381991;28;20041;-69
2023/04/06 16:53:10;;;;;;;16.02;10.13;;;;;;;10.11;84.67;101404.91;10381293;28;20042;-70
2023/04/06 16:58:11;;;;;;;16.20;9.35;;;;;;;9.77;92.37;101401.84;10367843;28;20038;-70
2023/04/06 17:03:11;;;;;;;18.30;10.85;;;;;;;9.63;98.16;101423.25;10403536;28;20056;-70
2023/04/06 17:08:12;;;;;;;20.08;11.38;;;;;;;9.35;100.00;101396.38;10393711;28;20049;-70
2023/04/06 17:13:12;;;;;;;21.13;11.90;;;;;;;9.27;100.00;101404.94;10380042;28;20057;-67
2023/04/06 17:18:13;;;;;;;19.75;12.45;;;;;;;8.99;100.00;101419.25;10356174;28;20033;-70
2023/04/06 17:23:14;;;;;;;21.58;13.93;;;;;;;8.83;100.00;101420.72;10364592;28;20041;-69
2023/04/06 17:28:14;;;;;;;21.73;13.32;;;;;;;8.64;100.00;101444.56;10380902;28;20329;-70
2023/04/06 17:33:15;;;;;;;22.42;13.95;;;;;;;8.52;100.00;101430.78;10375115;28;20044;-69
2023/04/06 17:38:16;;;;;;;23.23;14.82;;;;;;;8.17;100.00;101435.94;10372242;28;20041;-69
2023/04/06 17:43:17;;;;;;;28.35;15.60;;;;;;;8.20;100.00;101466.47;10356191;28;20025;-69
2023/04/06 17:48:17;;;;;;;27.13;17.10;;;;;;;7.85;100.00;101441.47;10395936;28;20045;-75
2023/04/06 17:53:19;;;;;;;25.98;15.93;;;;;;;7.88;100.00;101480.25;10351285;28;20049;-72
2023/04/06 17:58:21;;;;;;;26.85;16.30;;;;;;;7.75;100.00;101480.34;10396014;28;20038;-70
2023/04/06 18:03:21;;;;;;;28.08;18.05;;;;;;;7.54;100.00;101473.28;10392294;28;20326;-71
2023/04/06 18:08:22;;;;;;;29.10;18.10;;;;;;;7.58;100.00;101490.13;10362096;28;20041;-71
2023/04/06 18:13:22;;;;;;;31.35;19.50;;;;;;;7.44;100.00;101476.50;10379070;28;20514;-71
2023/04/06 18:18:23;;;;;;;33.08;20.50;;;;;;;7.39;100.00;101481.78;10371908;28;20095;-71
2023/04/06 18:23:24;;;;;;;29.08;19.25;;;;;;;7.37;100.00;101481.16;10414316;28;20045;-67
2023/04/06 18:28:24;;;;;;;29.92;19.25;;;;;;;7.34;100.00;101491.72;10413226;28;20064;-71
2023/04/06 18:33:28;;;;;;;30.92;19.13;;;;;;;7.25;100.00;101493.88;10409974;28;20125;-71
2023/04/06 18:38:28;;;;;;;39.63;20.45;;;;;;;7.15;100.00;101485.25;10393143;28;20448;-71
2023/04/06 18:43:29;;;;;;;32.17;20.30;;;;;;;7.15;100.00;101491.59;10376404;28;20458;-71
2023/04/06 18:48:29;;;;;;;33.95;20.75;;;;;;;7.16;100.00;101496.00;10360138;28;20072;-72
2023/04/06 18:53:30;;;;;;;32.80;21.02;;;;;;;7.13;100.00;101492.84;10410639;28;20075;-71
2023/04/06 18:58:30;;;;;;;37.30;22.48;;;;;;;7.00;100.00;101486.38;10366301;28;20029;-72
2023/04/06 19:03:31;;;;;;;39.75;23.05;;;;;;;7.08;100.00;101497.09;10376614;28;20041;-72
2023/04/06 19:08:32;;;;;;;38.22;23.90;;;;;;;7.02;100.00;101497.13;10376256;28;20049;-67
2023/04/06 19:13:33;;;;;;;34.28;21.77;;;;;;;7.02;100.00;101510.81;10393213;28;20053;-72
2023/04/06 19:18:33;;;;;;;42.65;23.10;;;;;;;6.96;100.00;101493.34;10375839;28;20049;-73
2023/04/06 19:23:35;;;;;;;42.00;23.95;;;;;;;6.95;100.00;101497.13;10377884;28;20033;-73
2023/04/06 19:28:35;;;;;;;40.28;24.77;;;;;;;6.91;100.00;101501.38;10356928;28;20124;-73
2023/04/06 19:33:37;;;;;;;44.10;26.10;;;;;;;6.80;100.00;101489.19;10357390;28;20049;-73
2023/04/06 19:38:38;;;;;;;49.10;26.90;;;;;;;6.87;100.00;101495.47;10375325;28;20052;-73
2023/04/06 19:43:38;;;;;;;45.85;26.65;;;;;;;6.89;100.00;101519.91;10392769;28;20504;-73
2023/04/06 19:48:39;;;;;;;43.08;27.05;;;;;;;6.83;100.00;101504.34;10374672;28;20041;-73
2023/04/06 19:53:40;;;;;;;47.88;26.63;;;;;;;6.84;100.00;101512.34;10348880;28;20049;-73
2023/04/06 19:58:40;;;;;;;46.65;25.63;;;;;;;6.78;100.00;101512.31;10371519;28;20056;-72
2023/04/06 20:03:41;;;;;;;42.28;26.70;;;;;;;6.73;100.00;101499.28;10382871;28;20042;-72
2023/04/06 20:08:41;;;;;;;45.80;26.77;;;;;;;6.63;100.00;101483.31;10358353;28;20534;-71
2023/04/06 20:13:42;;;;;;;46.40;28.10;;;;;;;6.04;100.00;101391.25;10364533;28;20057;-72
2023/04/06 20:18:42;;;;;;;46.85;28.17;;;;;;;6.69;100.00;101498.03;10374368;28;20045;-73
2023/04/06 20:23:43;;;;;;;48.22;29.42;;;;;;;6.66;100.00;101507.50;10379499;28;20057;-73
2023/04/06 20:28:44;;;;;;;50.78;29.70;;;;;;;6.65;100.00;101494.88;10380161;28;20037;-74
2023/04/06 20:33:44;;;;;;;50.38;30.05;;;;;;;6.59;100.00;101494.88;10362470;28;20072;-74
2023/04/06 20:38:45;;;;;;;48.97;30.95;;;;;;;6.63;100.00;101504.34;10345177;28;20712;-73
2023/04/06 20:43:46;;;;;;;55.20;31.13;;;;;;;6.56;100.00;101482.47;10359718;28;20041;-74
2023/04/06 20:48:47;;;;;;;55.70;32.70;;;;;;;6.55;100.00;101478.09;10370244;28;20034;-71
2023/04/06 20:53:47;;;;;;;58.75;33.42;;;;;;;6.55;100.00;101486.28;10381274;28;21625;-72
2023/04/06 20:58:48;;;;;;;50.03;28.38;;;;;;;6.49;100.00;101487.13;10381921;28;20040;-72
2023/04/06 21:03:49;;;;;;;49.03;28.15;;;;;;;6.51;100.00;101482.31;10358556;28;20072;-72
2023/04/06 21:08:49;;;;;;;43.13;25.52;;;;;;;6.53;100.00;101482.94;10341792;28;20092;-72
2023/04/06 21:13:50;;;;;;;40.97;24.40;;;;;;;6.49;100.00;101475.34;10345760;28;20043;-73
2023/04/06 21:18:50;;;;;;;38.63;23.83;;;;;;;6.48;100.00;101477.25;10328583;28;20046;-72
2023/04/06 21:23:51;;;;;;;38.50;22.60;;;;;;;6.51;100.00;101478.69;10366441;28;20042;-75
2023/04/06 21:28:52;;;;;;;39.70;24.13;;;;;;;6.46;100.00;101476.59;10348085;28;20066;-72
2023/04/06 21:33:52;;;;;;;34.40;21.45;;;;;;;6.41;100.00;101462.75;10374808;28;21131;-73
2023/04/06 21:38:53;;;;;;;37.13;23.33;;;;;;;6.43;100.00;101466.09;10356900;28;20249;-72
2023/04/06 21:43:54;;;;;;;40.75;23.98;;;;;;;6.40;100.00;101475.56;10332687;28;20057;-72
2023/04/06 21:48:54;;;;;;;41.65;25.98;;;;;;;6.30;100.00;101452.44;10355719;28;20057;-72
2023/04/06 21:53:55;;;;;;;44.72;25.83;;;;;;;6.35;100.00;101469.06;10372598;28;20037;-72
2023/04/06 21:58:56;;;;;;;47.03;25.50;;;;;;;6.25;100.00;101456.63;10381048;28;20049;-72
2023/04/06 22:03:56;;;;;;;49.53;27.90;;;;;;;6.31;100.00;101456.88;10362703;28;20049;-72
2023/04/06 22:08:57;;;;;;;42.10;25.17;;;;;;;6.24;100.00;101446.78;10413349;28;20061;-71
2023/04/06 22:13:57;;;;;;;40.35;26.50;;;;;;;6.33;100.00;101443.81;10369201;28;20104;-71
2023/04/06 22:18:58;;;;;;;43.80;25.20;;;;;;;6.35;100.00;101452.66;10376951;28;20034;-72
2023/04/06 22:23:58;;;;;;;38.17;24.30;;;;;;;6.30;100.00;101438.75;10379475;28;20049;-72
2023/04/06 22:28:59;;;;;;;36.30;22.65;;;;;;;6.25;100.00;101420.25;10378451;28;20034;-72
2023/04/06 22:33:59;;;;;;;40.22;25.30;;;;;;;6.35;100.00;101447.19;10371186;28;20034;-71